Time;durP1;ratioP1;P1;durP2;ratioP2;P2;SDS_P1;SDS_P2;PMS_P1;PMS_P2;Temp;Humidity;BMP_temperature;BMP_pressure;BME280_temperature;BME280_humidity;BME280_pressure;Samples;Min_cycle;Max_cycle;Signal;HPM_P1;HPM_P2
2024/02/02 00:01:54;;;;;;;20.48;3.47;;;4.90;1.00;;;;;;6252816;23;20199;-89
2024/02/02 00:04:20;;;;;;;11.18;4.20;;;4.90;1.00;;;;;;6252754;23;20197;-89
2024/02/02 00:06:47;;;;;;;16.30;5.88;;;4.90;1.00;;;;;;6252975;23;20179;-88
2024/02/02 00:09:14;;;;;;;15.50;4.82;;;4.90;1.00;;;;;;6253381;23;20641;-88
2024/02/02 00:11:42;;;;;;;10.35;4.10;;;4.90;1.00;;;;;;6253647;23;20225;-88
2024/02/02 00:14:10;;;;;;;8.15;3.17;;;4.90;1.00;;;;;;6262098;23;20189;-89
2024/02/02 00:16:37;;;;;;;13.98;4.05;;;5.00;1.00;;;;;;6274885;22;20166;-88
2024/02/02 00:19:04;;;;;;;11.32;4.53;;;5.00;1.00;;;;;;6264916;23;20553;-89
2024/02/02 00:21:32;;;;;;;9.02;3.80;;;4.90;1.00;;;;;;6270163;23;20565;-87
2024/02/02 00:23:58;;;;;;;15.63;4.68;;;4.90;1.00;;;;;;6253582;23;20217;-90
2024/02/02 00:26:26;;;;;;;20.30;4.78;;;4.80;28.10;;;;;;6252826;23;20182;-88
2024/02/02 00:28:53;;;;;;;11.25;4.13;;;4.80;99.90;;;;;;6259348;22;20174;-88
2024/02/02 00:31:22;;;;;;;14.90;4.57;;;4.90;99.90;;;;;;6257038;23;20198;-89
2024/02/02 00:33:49;;;;;;;9.25;3.80;;;4.90;99.90;;;;;;6253769;23;20190;-89
2024/02/02 00:36:16;;;;;;;10.07;3.20;;;5.00;1.00;;;;;;6253465;23;20202;-89
2024/02/02 00:38:43;;;;;;;13.50;4.18;;;5.00;1.00;;;;;;6258301;23;20179;-88
2024/02/02 00:41:10;;;;;;;23.55;6.32;;;5.10;1.00;;;;;;6270668;23;20166;-88
2024/02/02 00:43:37;;;;;;;18.20;4.78;;;5.10;1.00;;;;;;6274652;23;20224;-89
2024/02/02 00:46:05;;;;;;;8.38;4.15;;;5.20;1.00;;;;;;6267448;23;20170;-89
2024/02/02 00:48:34;;;;;;;14.95;4.32;;;5.20;1.00;;;;;;6273742;22;20158;-85
2024/02/02 00:51:01;;;;;;;14.43;4.55;;;5.20;99.90;;;;;;6256575;23;20528;-89
2024/02/02 00:53:29;;;;;;;21.77;4.50;;;5.20;99.90;;;;;;6271584;22;20205;-86
2024/02/02 00:55:56;;;;;;;8.18;3.45;;;5.10;1.00;;;;;;6275380;22;20180;-86
2024/02/02 00:58:23;;;;;;;11.55;3.25;;;5.10;42.40;;;;;;6275223;22;20151;-86
2024/02/02 01:00:50;;;;;;;13.20;3.63;;;5.20;1.50;;;;;;6275356;22;20168;-87
2024/02/02 01:03:17;;;;;;;9.20;3.55;;;5.10;1.00;;;;;;6265478;22;20195;-89
2024/02/02 01:05:45;;;;;;;19.05;4.30;;;5.00;1.00;;;;;;6272687;23;20189;-89
2024/02/02 01:08:12;;;;;;;15.00;4.20;;;5.00;1.00;;;;;;6269180;23;20212;-89
2024/02/02 01:10:39;;;;;;;12.25;3.88;;;5.10;80.50;;;;;;6260434;23;20187;-90
2024/02/02 01:13:08;;;;;;;12.50;4.13;;;4.90;99.90;;;;;;6272643;23;20246;-89
2024/02/02 01:15:35;;;;;;;19.55;4.00;;;4.90;99.90;;;;;;6274135;23;20171;-88
2024/02/02 01:18:07;;;;;;;18.25;4.75;;;4.90;99.90;;;;;;6270054;22;20226;-89
2024/02/02 01:20:34;;;;;;;16.40;3.97;;;4.90;99.90;;;;;;6257429;23;20170;-89
2024/02/02 01:23:03;;;;;;;14.48;5.60;;;4.90;99.90;;;;;;6257881;23;20225;-89
2024/02/02 01:25:30;;;;;;;14.25;3.75;;;5.00;99.90;;;;;;6253287;23;20170;-88
2024/02/02 01:28:01;;;;;;;14.00;5.00;;;5.00;99.90;;;;;;6256752;23;20175;-89
2024/02/02 01:30:31;;;;;;;20.98;5.18;;;5.00;99.90;;;;;;6258073;23;20174;-89
2024/02/02 01:32:58;;;;;;;13.25;5.18;;;5.00;99.90;;;;;;6259888;23;20553;-89
2024/02/02 01:35:28;;;;;;;17.13;4.97;;;5.00;99.90;;;;;;6253008;23;20170;-89
2024/02/02 01:37:55;;;;;;;15.23;4.28;;;5.00;99.90;;;;;;6252698;23;20178;-89
2024/02/02 01:40:23;;;;;;;19.50;5.03;;;5.00;99.90;;;;;;6253495;23;20174;-89
2024/02/02 01:42:54;;;;;;;18.00;7.57;;;5.10;99.90;;;;;;6267049;23;20191;-88
2024/02/02 01:45:21;;;;;;;18.13;4.28;;;5.00;99.90;;;;;;6272091;23;20159;-89
2024/02/02 01:47:48;;;;;;;13.20;5.07;;;5.10;99.90;;;;;;6273863;22;20169;-88
2024/02/02 01:50:15;;;;;;;20.75;5.35;;;5.00;58.80;;;;;;6267133;23;20191;-88
2024/02/02 01:52:43;;;;;;;17.85;7.50;;;5.10;99.90;;;;;;6256937;23;20236;-89
2024/02/02 01:55:10;;;;;;;15.68;5.00;;;5.20;99.90;;;;;;6263465;23;20182;-87
2024/02/02 01:57:39;;;;;;;18.77;7.30;;;5.10;99.90;;;;;;6275228;22;20163;-86
2024/02/02 02:00:07;;;;;;;25.55;8.65;;;5.20;99.90;;;;;;6269995;23;20174;-90
2024/02/02 02:02:34;;;;;;;20.25;7.95;;;5.10;99.90;;;;;;6255693;23;20221;-89
2024/02/02 02:05:03;;;;;;;16.90;7.10;;;5.10;99.90;;;;;;6257365;23;20225;-88
2024/02/02 02:07:30;;;;;;;13.60;5.20;;;5.10;99.90;;;;;;6274937;22;20165;-86
2024/02/02 02:09:57;;;;;;;18.95;7.07;;;5.10;99.90;;;;;;6275121;22;20159;-87
2024/02/02 02:12:25;;;;;;;19.98;5.88;;;5.10;99.90;;;;;;6271550;22;20256;-90
2024/02/02 02:14:53;;;;;;;14.00;4.32;;;5.10;99.90;;;;;;6259431;23;20228;-89
2024/02/02 02:17:20;;;;;;;19.38;5.00;;;5.10;99.90;;;;;;6257044;23;20248;-89
2024/02/02 02:19:48;;;;;;;15.50;4.95;;;5.10;99.90;;;;;;6258331;23;20555;-88
2024/02/02 02:22:16;;;;;;;22.45;4.70;;;5.10;99.90;;;;;;6252788;23;20228;-89
2024/02/02 02:24:43;;;;;;;16.08;4.82;;;5.10;99.90;;;;;;6256330;23;20178;-88
2024/02/02 02:27:10;;;;;;;16.98;4.82;;;5.10;99.90;;;;;;6253270;23;20178;-89
2024/02/02 02:29:37;;;;;;;12.50;4.53;;;5.10;99.90;;;;;;6251935;23;20178;-89
2024/02/02 02:32:06;;;;;;;15.85;4.40;;;5.10;99.90;;;;;;6272393;22;20293;-89
2024/02/02 02:34:46;;;;;;;10.77;5.28;;;5.10;99.90;;;;;;5135167;27;20536;-88
2024/02/02 02:37:13;;;;;;;12.20;4.75;;;5.10;99.90;;;;;;5129890;28;20223;-89
2024/02/02 02:39:40;;;;;;;14.20;5.47;;;5.10;99.90;;;;;;5118795;28;20232;-89
2024/02/02 02:42:07;;;;;;;13.88;5.13;;;5.00;99.90;;;;;;5117036;28;20232;-89
2024/02/02 02:44:34;;;;;;;15.23;5.15;;;5.00;99.90;;;;;;5117624;28;20200;-89
2024/02/02 02:47:01;;;;;;;15.35;5.07;;;5.10;1.00;;;;;;5115949;28;20236;-89
2024/02/02 02:49:28;;;;;;;18.73;5.13;;;5.10;99.90;;;;;;5116492;28;20200;-89
2024/02/02 02:51:56;;;;;;;16.52;4.82;;;5.10;99.90;;;;;;5115362;28;20270;-89
2024/02/02 02:54:23;;;;;;;20.02;4.82;;;5.10;99.90;;;;;;5117297;28;20212;-89
2024/02/02 02:56:50;;;;;;;21.63;5.82;;;5.20;99.90;;;;;;5116302;28;20196;-89
2024/02/02 02:59:18;;;;;;;13.60;5.70;;;5.20;99.90;;;;;;5120133;28;20212;-88
2024/02/02 03:01:45;;;;;;;22.33;5.80;;;5.20;99.90;;;;;;5120710;28;20237;-89
2024/02/02 03:04:12;;;;;;;11.27;4.47;;;5.20;99.90;;;;;;5118137;28;20227;-89
2024/02/02 03:06:39;;;;;;;15.77;4.78;;;5.10;99.90;;;;;;5115649;28;20197;-89
2024/02/02 03:09:11;;;;;;;21.50;5.80;;;5.10;99.90;;;;;;5116078;28;20204;-89
2024/02/02 03:11:38;;;;;;;13.82;5.00;;;5.10;99.90;;;;;;5115249;28;20260;-87
2024/02/02 03:14:05;;;;;;;12.90;4.80;;;5.20;1.00;;;;;;5115453;28;20220;-89
2024/02/02 03:16:32;;;;;;;15.50;6.68;;;5.20;99.90;;;;;;5115787;28;20710;-88
2024/02/02 03:18:59;;;;;;;13.95;5.97;;;5.20;99.90;;;;;;5115553;28;20201;-89
2024/02/02 03:21:26;;;;;;;12.20;4.90;;;5.20;99.90;;;;;;5117736;28;20571;-89
2024/02/02 03:23:53;;;;;;;22.38;5.57;;;5.30;99.90;;;;;;5114983;28;20229;-89
2024/02/02 03:26:22;;;;;;;18.00;5.80;;;5.30;99.90;;;;;;5114355;28;20201;-89
2024/02/02 03:28:49;;;;;;;21.45;6.20;;;5.40;99.90;;;;;;5124781;28;20263;-86
2024/02/02 03:31:16;;;;;;;15.90;5.95;;;5.30;97.00;;;;;;5135042;28;20197;-89
2024/02/02 03:33:43;;;;;;;14.40;7.22;;;5.30;99.90;;;;;;5129567;28;20243;-88
2024/02/02 03:36:10;;;;;;;16.50;6.32;;;5.30;99.90;;;;;;5114816;28;20684;-89
2024/02/02 03:38:37;;;;;;;16.65;6.15;;;5.40;99.90;;;;;;5113834;28;20205;-89
2024/02/02 03:41:04;;;;;;;23.88;6.78;;;5.30;99.90;;;;;;5113742;28;20247;-89
2024/02/02 03:43:32;;;;;;;19.77;6.47;;;5.20;99.90;;;;;;5113939;28;20221;-89
2024/02/02 03:45:59;;;;;;;19.33;6.72;;;5.10;99.90;;;;;;5100874;28;20618;-89
2024/02/02 03:48:26;;;;;;;12.60;7.60;;;5.10;99.90;;;;;;5101469;28;20237;-89
2024/02/02 03:50:53;;;;;;;12.23;7.25;;;5.00;99.90;;;;;;5101758;28;20205;-90
2024/02/02 03:53:20;;;;;;;20.73;8.07;;;5.10;1.00;;;;;;5101114;28;20221;-89
2024/02/02 03:55:46;;;;;;;19.92;7.65;;;5.10;1.00;;;;;;5101733;28;20202;-89
2024/02/02 03:58:13;;;;;;;22.92;7.88;;;5.00;1.00;;;;;;5101286;28;20201;-89
2024/02/02 04:00:42;;;;;;;19.77;7.47;;;5.00;1.00;;;;;;5118724;28;20263;-88
2024/02/02 04:03:09;;;;;;;19.13;8.05;;;4.90;1.00;;;;;;5115696;28;20225;-88
2024/02/02 04:05:36;;;;;;;15.90;6.75;;;4.90;1.00;;;;;;5110722;28;20209;-89
2024/02/02 04:08:03;;;;;;;25.70;7.60;;;5.00;1.00;;;;;;5107197;28;20205;-88
2024/02/02 04:10:30;;;;;;;20.30;8.38;;;4.90;1.00;;;;;;5101662;28;20202;-89
2024/02/02 04:12:58;;;;;;;21.02;6.15;;;5.00;1.00;;;;;;5101446;28;20225;-89
2024/02/02 04:15:26;;;;;;;17.67;10.35;;;4.90;1.00;;;;;;5120201;28;20201;-87
2024/02/02 04:17:54;;;;;;;23.75;8.50;;;5.00;1.00;;;;;;5103350;28;20233;-89
2024/02/02 04:20:21;;;;;;;21.95;8.00;;;5.10;1.00;;;;;;5102869;28;20201;-89
2024/02/02 04:22:48;;;;;;;17.20;6.60;;;5.10;99.90;;;;;;5101983;28;20232;-87
2024/02/02 04:25:15;;;;;;;22.92;6.65;;;5.00;99.90;;;;;;5101989;28;20738;-88
2024/02/02 04:27:42;;;;;;;20.20;7.63;;;5.10;99.90;;;;;;5102087;28;20657;-88
2024/02/02 04:30:10;;;;;;;21.80;6.85;;;5.10;99.90;;;;;;5103349;28;20202;-88
2024/02/02 04:32:37;;;;;;;14.88;6.63;;;5.10;99.90;;;;;;5099532;28;20241;-88
2024/02/02 04:35:06;;;;;;;11.32;6.05;;;5.10;99.90;;;;;;5099120;28;20228;-88
2024/02/02 04:37:33;;;;;;;22.02;7.32;;;5.00;99.90;;;;;;5100154;28;20205;-88
2024/02/02 04:40:00;;;;;;;12.77;6.50;;;5.00;99.90;;;;;;5101351;28;20259;-89
2024/02/02 04:42:27;;;;;;;15.85;6.32;;;5.10;99.90;;;;;;5103475;28;20226;-89
2024/02/02 04:44:53;;;;;;;12.10;6.15;;;5.10;99.90;;;;;;5120546;28;20223;-87
2024/02/02 04:47:22;;;;;;;14.75;6.85;;;5.10;99.90;;;;;;5121024;28;20177;-88
2024/02/02 04:49:49;;;;;;;23.77;7.20;;;5.10;99.90;;;;;;5120774;28;20201;-88
2024/02/02 04:52:17;;;;;;;16.15;7.68;;;5.10;99.90;;;;;;5119715;28;20214;-90
2024/02/02 04:54:44;;;;;;;19.92;6.28;;;5.10;99.90;;;;;;5101531;28;20233;-89
2024/02/02 04:57:11;;;;;;;18.73;6.10;;;5.20;99.90;;;;;;5100810;28;20201;-89
2024/02/02 04:59:38;;;;;;;11.68;6.00;;;5.20;99.90;;;;;;5100104;28;20206;-89
2024/02/02 05:02:05;;;;;;;11.98;5.10;;;5.30;99.90;;;;;;5107067;28;20228;-88
2024/02/02 05:04:32;;;;;;;17.80;7.20;;;5.30;99.90;;;;;;5120081;28;20182;-88
2024/02/02 05:07:01;;;;;;;12.48;6.72;;;5.20;1.00;;;;;;5115058;28;20202;-89
2024/02/02 05:09:29;;;;;;;21.27;6.13;;;5.10;7.90;;;;;;5100111;28;20621;-89
2024/02/02 05:11:56;;;;;;;14.35;5.63;;;5.10;1.00;;;;;;5099536;28;20230;-89
2024/02/02 05:14:23;;;;;;;15.18;6.03;;;5.20;1.00;;;;;;5107927;28;20237;-88
2024/02/02 05:16:50;;;;;;;20.95;6.97;;;5.20;99.90;;;;;;5115854;28;20198;-89
2024/02/02 05:19:17;;;;;;;10.90;6.22;;;5.30;99.90;;;;;;5115616;28;20634;-89
2024/02/02 05:21:44;;;;;;;13.48;5.95;;;5.30;1.00;;;;;;5112201;28;20270;-89
2024/02/02 05:24:11;;;;;;;15.25;6.38;;;5.20;1.00;;;;;;5109610;28;20202;-89
2024/02/02 05:26:39;;;;;;;20.77;5.97;;;5.10;1.00;;;;;;5116905;28;20206;-88
2024/02/02 05:29:06;;;;;;;17.48;6.30;;;5.10;63.20;;;;;;5118529;28;20202;-88
2024/02/02 05:31:33;;;;;;;13.10;5.35;;;5.10;1.00;;;;;;5116960;28;20210;-87
2024/02/02 05:34:00;;;;;;;16.75;7.60;;;5.20;40.40;;;;;;5119117;28;20220;-87
2024/02/02 05:36:27;;;;;;;13.48;6.20;;;5.00;56.60;;;;;;5118293;28;20189;-88
2024/02/02 05:38:54;;;;;;;13.70;5.25;;;5.10;99.90;;;;;;5117419;28;20178;-88
2024/02/02 05:41:21;;;;;;;12.10;5.95;;;5.10;1.00;;;;;;5110068;28;20657;-88
2024/02/02 05:43:49;;;;;;;10.65;5.00;;;5.10;99.90;;;;;;5102381;28;20197;-89
2024/02/02 05:46:16;;;;;;;12.18;5.63;;;5.30;99.90;;;;;;5100078;28;20209;-88
2024/02/02 05:48:43;;;;;;;9.77;6.30;;;5.30;99.90;;;;;;5099798;28;20233;-89
2024/02/02 05:51:11;;;;;;;16.55;5.90;;;5.30;1.00;;;;;;5102782;28;20640;-89
2024/02/02 05:53:38;;;;;;;16.00;6.95;;;5.20;1.00;;;;;;5117460;28;20236;-88
2024/02/02 05:56:05;;;;;;;14.30;5.75;;;5.10;1.00;;;;;;5113908;28;20662;-89
2024/02/02 05:58:32;;;;;;;13.32;6.60;;;5.10;50.50;;;;;;5099993;28;20669;-89
2024/02/02 06:04:14;;;;;;;16.88;5.45;;;5.10;99.90;;;;;;5066236;28;20280;-89
2024/02/02 06:06:41;;;;;;;10.95;5.38;;;5.10;77.60;;;;;;5100442;28;20580;-89
2024/02/02 06:09:09;;;;;;;15.63;6.63;;;5.10;99.90;;;;;;5119184;28;20182;-88
2024/02/02 06:11:36;;;;;;;17.05;5.63;;;5.10;99.90;;;;;;5112109;28;20693;-90
2024/02/02 06:14:03;;;;;;;19.83;6.30;;;5.10;84.30;;;;;;5097582;28;20259;-89
2024/02/02 06:16:30;;;;;;;43.40;18.48;;;5.20;46.50;;;;;;5097916;28;20251;-89
2024/02/02 06:18:57;;;;;;;15.48;6.18;;;5.20;99.90;;;;;;5098205;28;20206;-89
2024/02/02 06:21:25;;;;;;;15.35;6.55;;;5.20;57.50;;;;;;5098346;28;20248;-89
2024/02/02 06:23:52;;;;;;;17.95;5.63;;;5.20;1.00;;;;;;5096983;28;20201;-89
2024/02/02 06:26:21;;;;;;;10.13;5.00;;;5.20;1.00;;;;;;5098119;28;20250;-89
2024/02/02 06:28:47;;;;;;;14.60;6.28;;;5.20;99.90;;;;;;5102067;28;20205;-89
2024/02/02 06:31:14;;;;;;;15.10;5.78;;;5.10;99.90;;;;;;5099840;28;20198;-89
2024/02/02 06:33:41;;;;;;;16.90;6.55;;;5.20;99.90;;;;;;5097893;28;20213;-89
2024/02/02 06:36:09;;;;;;;17.83;5.93;;;5.20;96.40;;;;;;5109775;28;20186;-87
2024/02/02 06:38:37;;;;;;;13.02;6.28;;;5.20;20.50;;;;;;5118356;28;20204;-87
2024/02/02 06:41:06;;;;;;;16.90;5.13;;;5.30;1.00;;;;;;5116682;28;20212;-87
2024/02/02 06:43:33;;;;;;;12.88;6.93;;;5.30;1.00;;;;;;5102142;28;20237;-89
2024/02/02 06:46:00;;;;;;;11.85;5.65;;;5.20;1.00;;;;;;5099203;28;20213;-89
2024/02/02 06:48:27;;;;;;;15.38;5.88;;;5.20;93.00;;;;;;5098378;28;20255;-89
2024/02/02 06:50:54;;;;;;;17.88;6.90;;;5.30;16.70;;;;;;5105885;28;20208;-89
2024/02/02 06:54:03;;;;;;;9.27;5.78;;;5.30;14.90;;;;;;5101116;28;20229;-89
2024/02/02 06:56:39;;;;;;;24.58;8.90;;;5.40;1.00;;;;;;5081988;28;20194;-90
2024/02/02 06:59:08;;;;;;;16.30;5.75;;;5.60;1.00;;;;;;5101946;28;20638;-90
2024/02/02 07:01:35;;;;;;;13.88;6.13;;;5.40;1.00;;;;;;5110432;28;20222;-90
2024/02/02 07:04:03;;;;;;;19.30;8.45;;;5.40;1.00;;;;;;5100681;28;20208;-90
2024/02/02 07:06:32;;;;;;;25.13;14.20;;;5.30;1.00;;;;;;5098602;28;20201;-88
2024/02/02 07:09:06;;;;;;;18.98;11.23;;;5.40;1.00;;;;;;5098630;28;20260;-88
2024/02/02 07:11:55;;;;;;;32.17;15.90;;;5.40;1.00;;;;;;5098451;28;20217;-88
2024/02/02 07:14:47;;;;;;;47.28;20.48;;;5.40;1.00;;;;;;5100921;28;20565;-90
2024/02/02 07:17:33;;;;;;;36.47;14.90;;;5.40;1.00;;;;;;5105519;28;20249;-88
2024/02/02 07:20:01;;;;;;;21.95;12.30;;;5.40;1.00;;;;;;5104904;28;20213;-89
2024/02/02 07:22:37;;;;;;;25.55;11.13;;;5.40;1.00;;;;;;5100777;28;20279;-88
2024/02/02 07:25:07;;;;;;;23.27;9.02;;;5.40;1.00;;;;;;5109496;28;20225;-87
2024/02/02 07:27:49;;;;;;;14.93;6.05;;;5.40;1.00;;;;;;5105797;28;20588;-87
2024/02/02 07:30:51;;;;;;;15.38;6.53;;;5.40;99.90;;;;;;5106203;28;20245;-89
2024/02/02 07:33:31;;;;;;;26.67;12.00;;;5.40;1.00;;;;;;5104722;28;20236;-87
2024/02/02 07:35:58;;;;;;;15.55;8.32;;;5.40;99.90;;;;;;5106940;28;20228;-87
2024/02/02 07:38:43;;;;;;;22.52;7.00;;;5.40;1.00;;;;;;5106213;28;20251;-87
2024/02/02 07:41:13;;;;;;;17.70;6.38;;;5.40;99.90;;;;;;5108665;28;20193;-87
2024/02/02 07:43:40;;;;;;;15.05;5.55;;;5.40;99.90;;;;;;5117437;28;20201;-88
2024/02/02 07:46:07;;;;;;;18.25;8.05;;;5.50;99.90;;;;;;5118912;28;20198;-88
2024/02/02 07:48:35;;;;;;;20.77;8.98;;;5.50;6.30;;;;;;5117543;28;20250;-88
2024/02/02 07:51:02;;;;;;;12.35;6.55;;;5.50;1.00;;;;;;5114131;28;20190;-88
2024/02/02 07:53:29;;;;;;;13.85;5.28;;;5.60;1.00;;;;;;5113724;28;20232;-87
2024/02/02 07:55:56;;;;;;;20.50;6.65;;;5.50;1.00;;;;;;5111590;28;20233;-87
2024/02/02 07:58:25;;;;;;;14.30;6.53;;;5.60;1.00;;;;;;5107594;28;20210;-87
2024/02/02 08:01:19;;;;;;;21.48;7.10;;;5.70;1.00;;;;;;5114692;28;20202;-87
2024/02/02 08:03:46;;;;;;;14.52;5.60;;;5.70;1.00;;;;;;5115318;28;20198;-87
2024/02/02 08:06:13;;;;;;;13.38;6.78;;;5.80;99.90;;;;;;5114937;28;20197;-88
2024/02/02 08:08:40;;;;;;;15.95;6.40;;;5.70;99.90;;;;;;5109624;28;20212;-89
2024/02/02 08:11:07;;;;;;;13.10;6.40;;;5.70;99.90;;;;;;5103524;28;20620;-88
2024/02/02 08:13:36;;;;;;;13.10;6.30;;;5.80;99.90;;;;;;5106110;28;20229;-88
2024/02/02 08:16:03;;;;;;;10.93;6.50;;;5.80;99.90;;;;;;5106381;28;20577;-88
2024/02/02 08:18:30;;;;;;;18.27;7.15;;;5.80;99.90;;;;;;5120863;28;20181;-87
2024/02/02 08:20:57;;;;;;;18.38;6.18;;;5.80;99.90;;;;;;5121192;28;20261;-88
2024/02/02 08:23:26;;;;;;;20.20;7.40;;;5.90;99.90;;;;;;5115543;28;20221;-89
2024/02/02 08:25:52;;;;;;;11.93;6.55;;;5.90;99.90;;;;;;5117683;28;20205;-88
2024/02/02 08:28:19;;;;;;;21.75;7.80;;;5.90;39.30;;;;;;5119736;28;20193;-87
2024/02/02 08:30:48;;;;;;;10.93;6.72;;;5.90;1.00;;;;;;5121065;28;20194;-87
2024/02/02 08:33:15;;;;;;;16.10;6.72;;;5.90;1.00;;;;;;5120462;28;20224;-87
2024/02/02 08:35:43;;;;;;;13.85;7.60;;;5.90;1.00;;;;;;5120830;28;20214;-88
2024/02/02 08:38:12;;;;;;;11.10;5.85;;;5.90;1.00;;;;;;5120733;28;20228;-88
2024/02/02 08:40:42;;;;;;;16.17;6.72;;;5.90;1.00;;;;;;5120434;28;20182;-88
2024/02/02 08:43:11;;;;;;;14.15;6.90;;;6.00;99.90;;;;;;5120497;28;20269;-87
2024/02/02 08:46:10;;;;;;;21.67;6.90;;;6.10;99.90;;;;;;5120430;28;20189;-88
2024/02/02 08:52:12;;;;;;;14.43;5.45;;;6.30;99.90;;;;;;5118538;28;20316;-87
2024/02/02 08:54:46;;;;;;;13.05;6.80;;;6.40;99.90;;;;;;5120370;28;20220;-89
2024/02/02 08:57:37;;;;;;;17.75;8.38;;;6.40;99.90;;;;;;5120228;28;20166;-88
2024/02/02 09:00:15;;;;;;;16.80;6.90;;;6.50;99.90;;;;;;5114792;28;20270;-89
2024/02/02 09:03:05;;;;;;;19.38;6.70;;;6.60;96.70;;;;;;5103125;28;20727;-89
2024/02/02 09:05:49;;;;;;;18.00;8.27;;;6.70;75.20;;;;;;5103599;28;20182;-89
2024/02/02 09:08:34;;;;;;;13.45;7.05;;;6.70;14.60;;;;;;5106898;28;20206;-88
2024/02/02 09:11:21;;;;;;;16.27;6.32;;;6.70;1.00;;;;;;5117555;28;20174;-88
2024/02/02 09:13:49;;;;;;;12.48;8.15;;;6.70;1.00;;;;;;5119589;28;20174;-88
2024/02/02 09:16:17;;;;;;;14.23;6.97;;;6.70;1.00;;;;;;5118280;28;20210;-89
2024/02/02 09:18:46;;;;;;;15.63;8.55;;;6.70;1.00;;;;;;5114059;28;20190;-88
2024/02/02 09:21:17;;;;;;;8.85;6.63;;;6.70;1.00;;;;;;5105284;28;20202;-88
2024/02/02 09:26:37;;;;;;;11.43;7.15;;;6.80;1.00;;;;;;5058047;22;20211;-89
2024/02/02 09:29:06;;;;;;;18.23;8.38;;;6.90;1.00;;;;;;5039754;28;20214;-89
2024/02/02 09:31:48;;;;;;;16.27;7.65;;;6.80;1.00;;;;;;5038788;28;20577;-89
2024/02/02 09:40:49;;;;;;;17.00;7.10;;;6.60;99.90;;;;;;5055672;28;20194;-89
2024/02/02 09:43:35;;;;;;;14.43;6.75;;;6.70;99.90;;;;;;5063344;28;20671;-91
2024/02/02 09:46:13;;;;;;;16.53;6.83;;;6.80;99.90;;;;;;5062289;28;20218;-89
2024/02/02 09:48:55;;;;;;;13.35;6.80;;;6.50;99.90;;;;;;5063726;28;20506;-90
2024/02/02 09:51:39;;;;;;;12.73;7.05;;;6.60;99.90;;;;;;5061849;28;20561;-90
2024/02/02 09:54:46;;;;;;;12.60;6.95;;;6.50;99.90;;;;;;5063387;28;20292;-89
2024/02/02 09:57:26;;;;;;;11.60;6.55;;;6.50;99.90;;;;;;5040361;28;20693;-89
2024/02/02 10:00:02;;;;;;;11.45;5.85;;;6.60;99.90;;;;;;5061787;28;20232;-89
2024/02/02 10:12:02;;;;;;;7.22;5.43;;;6.40;1.00;;;;;;5220465;22;20214;-94
2024/02/02 10:18:30;;;;;;;;;;;;;;;;;;;;;
2024/02/02 10:21:14;;;;;;;13.18;8.68;;;6.60;99.90;;;;;;5056173;28;20195;-89
2024/02/02 10:24:01;;;;;;;19.52;14.00;;;6.80;1.00;;;;;;5077164;22;20286;-86
2024/02/02 10:26:47;;;;;;;16.85;9.75;;;6.70;99.90;;;;;;5053010;28;20238;-86
2024/02/02 10:29:23;;;;;;;16.40;8.20;;;6.70;99.90;;;;;;5053213;28;20192;-87
2024/02/02 10:32:09;;;;;;;11.57;6.18;;;6.70;99.90;;;;;;5054287;28;20191;-87
2024/02/02 10:34:54;;;;;;;10.00;5.68;;;6.70;99.90;;;;;;5066328;28;20340;-86
2024/02/02 10:37:33;;;;;;;12.65;4.60;;;6.90;99.90;;;;;;5060871;28;20191;-87
2024/02/02 10:40:50;;;;;;;12.27;5.82;;;6.90;99.90;;;;;;5073664;28;20213;-87
2024/02/02 10:43:29;;;;;;;10.75;4.93;;;6.90;99.90;;;;;;5062626;28;20226;-87
2024/02/02 10:46:14;;;;;;;13.05;4.22;;;6.90;69.00;;;;;;5061593;28;20270;-87
2024/02/02 10:49:03;;;;;;;10.32;5.00;;;7.00;49.90;;;;;;5058684;28;20191;-87
2024/02/02 10:51:38;;;;;;;6.77;4.23;;;7.00;35.10;;;;;;5058771;28;20190;-88
2024/02/02 10:54:20;;;;;;;13.32;3.78;;;7.20;36.60;;;;;;5058930;28;20423;-87
2024/02/02 10:57:04;;;;;;;8.10;4.50;;;7.30;32.40;;;;;;5064994;28;20245;-88
2024/02/02 10:59:39;;;;;;;13.73;4.77;;;7.30;1.00;;;;;;5066076;28;20407;-87
2024/02/02 11:02:18;;;;;;;9.73;4.00;;;7.30;1.00;;;;;;5065357;28;20456;-87
2024/02/02 11:04:57;;;;;;;6.80;3.78;;;7.30;1.00;;;;;;5061592;28;20487;-87
2024/02/02 11:07:28;;;;;;;6.00;3.50;;;7.30;1.00;;;;;;5064640;28;20191;-87
2024/02/02 11:09:58;;;;;;;5.77;3.67;;;7.30;1.00;;;;;;5064527;28;20445;-87
2024/02/02 11:12:37;;;;;;;6.30;4.00;;;7.40;1.00;;;;;;5062553;28;20924;-88
2024/02/02 11:15:19;;;;;;;10.50;4.28;;;7.30;1.00;;;;;;5074038;28;20439;-88
2024/02/02 11:17:54;;;;;;;5.60;4.00;;;7.40;1.00;;;;;;5074976;28;20214;-87
2024/02/02 11:20:37;;;;;;;6.50;4.07;;;7.40;1.00;;;;;;5075843;28;20404;-87
2024/02/02 11:23:12;;;;;;;11.77;4.00;;;7.50;1.00;;;;;;5078784;28;20167;-84
2024/02/02 11:25:44;;;;;;;10.85;4.95;;;7.50;1.00;;;;;;5081601;28;20403;-84
2024/02/02 11:28:18;;;;;;;10.50;4.45;;;7.40;1.00;;;;;;5081577;28;20214;-86
2024/02/02 11:30:56;;;;;;;7.23;4.10;;;7.50;1.00;;;;;;5077757;28;20191;-88
2024/02/02 11:33:50;;;;;;;7.00;4.73;;;7.50;1.00;;;;;;5076999;28;20517;-87
2024/02/02 11:36:34;;;;;;;6.97;5.03;;;7.40;1.00;;;;;;5075947;28;20469;-88
2024/02/02 11:39:17;;;;;;;6.07;4.90;;;7.40;1.00;;;;;;5072023;28;20412;-88
2024/02/02 11:41:46;;;;;;;10.87;5.80;;;7.40;1.00;;;;;;5067568;28;20405;-87
2024/02/02 11:44:15;;;;;;;9.87;4.60;;;7.50;1.00;;;;;;5063832;28;20461;-88
2024/02/02 11:46:43;;;;;;;13.13;5.47;;;7.60;1.00;;;;;;5063595;28;20416;-87
2024/02/02 11:49:11;;;;;;;12.97;6.17;;;7.50;1.00;;;;;;5078285;28;20432;-88
2024/02/02 11:51:48;;;;;;;11.53;5.20;;;7.70;1.00;;;;;;5080518;28;20426;-88
2024/02/02 11:54:24;;;;;;;8.80;5.77;;;7.50;1.00;;;;;;5080996;28;20424;-87
2024/02/02 11:56:52;;;;;;;13.53;6.03;;;7.50;1.00;;;;;;5080868;28;20436;-86
2024/02/02 11:59:25;;;;;;;16.50;5.50;;;7.70;1.00;;;;;;5080586;28;20431;-86
2024/02/02 12:02:07;;;;;;;15.48;4.95;;;7.70;1.00;;;;;;5078069;28;20465;-87
2024/02/02 12:04:41;;;;;;;14.20;6.20;;;7.60;1.00;;;;;;5071899;28;20322;-87
2024/02/02 12:07:28;;;;;;;13.13;5.83;;;7.80;1.00;;;;;;5063091;28;20396;-86
2024/02/02 12:10:00;;;;;;;13.70;5.70;;;7.80;1.00;;;;;;5063139;28;20461;-88
2024/02/02 12:12:34;;;;;;;11.97;6.97;;;7.80;1.00;;;;;;5069581;28;20442;-87
2024/02/02 12:15:01;;;;;;;10.87;5.40;;;7.70;1.00;;;;;;5061868;28;20504;-87
2024/02/02 12:17:28;;;;;;;10.00;5.77;;;7.70;1.00;;;;;;5060056;28;20459;-87
2024/02/02 12:19:57;;;;;;;14.80;6.57;;;7.70;1.00;;;;;;5060396;28;20424;-87
2024/02/02 12:22:25;;;;;;;13.30;6.03;;;7.60;1.00;;;;;;5060961;28;20498;-87
2024/02/02 12:24:53;;;;;;;11.63;6.20;;;7.70;1.00;;;;;;5065027;28;20455;-86
2024/02/02 12:27:20;;;;;;;10.60;6.10;;;7.60;1.00;;;;;;5063162;28;20451;-88
2024/02/02 12:29:47;;;;;;;16.90;6.90;;;7.60;1.00;;;;;;5062758;28;20473;-86
2024/02/02 12:32:14;;;;;;;11.43;5.33;;;7.70;1.00;;;;;;5061860;28;20442;-86
2024/02/02 12:34:42;;;;;;;10.80;5.30;;;7.70;1.00;;;;;;5060070;28;20486;-86
2024/02/02 12:37:10;;;;;;;11.57;5.87;;;7.70;1.00;;;;;;5061114;28;20511;-87
2024/02/02 12:39:38;;;;;;;10.20;5.80;;;7.60;1.00;;;;;;5061871;28;20507;-87
2024/02/02 12:42:05;;;;;;;9.47;6.30;;;7.60;1.00;;;;;;5068422;28;20761;-87
2024/02/02 12:44:33;;;;;;;14.80;6.20;;;7.60;1.00;;;;;;5072790;28;20469;-87
2024/02/02 12:47:04;;;;;;;11.50;5.83;;;7.50;1.00;;;;;;5068901;28;20438;-87
2024/02/02 12:49:31;;;;;;;11.67;5.60;;;7.50;1.00;;;;;;5069963;28;20436;-86
2024/02/02 12:51:58;;;;;;;12.30;5.63;;;7.50;1.00;;;;;;5068322;28;20424;-86
2024/02/02 12:54:25;;;;;;;9.93;5.97;;;7.40;1.00;;;;;;5062831;28;20496;-87
2024/02/02 12:56:53;;;;;;;11.73;6.23;;;7.40;1.00;;;;;;5079487;28;20469;-85
2024/02/02 12:59:20;;;;;;;9.45;5.60;;;7.40;1.00;;;;;;5079851;28;20428;-84
2024/02/02 13:01:48;;;;;;;12.60;5.57;;;7.40;1.00;;;;;;5074911;28;20211;-86
2024/02/02 13:04:16;;;;;;;16.08;5.60;;;7.40;1.00;;;;;;5064321;28;20531;-87
2024/02/02 13:06:44;;;;;;;11.13;6.60;;;7.40;1.00;;;;;;5060933;28;20238;-86
2024/02/02 13:09:17;;;;;;;10.40;5.82;;;7.40;1.00;;;;;;5066894;28;20215;-87
2024/02/02 13:11:46;;;;;;;13.10;5.33;;;7.40;1.00;;;;;;5070645;28;20206;-87
2024/02/02 13:14:28;;;;;;;15.33;6.77;;;7.40;1.00;;;;;;5071262;28;20476;-87
2024/02/02 13:17:12;;;;;;;10.23;5.80;;;7.50;1.00;;;;;;5063632;28;20469;-88
2024/02/02 13:19:42;;;;;;;10.63;5.60;;;7.40;1.00;;;;;;5061637;28;20429;-88
2024/02/02 13:22:21;;;;;;;16.63;7.00;;;7.40;1.00;;;;;;5060371;28;20493;-87
2024/02/02 13:25:10;;;;;;;11.33;7.07;;;7.40;1.00;;;;;;5072263;28;20483;-87
2024/02/02 13:27:38;;;;;;;12.50;6.30;;;7.40;1.00;;;;;;5072360;28;20449;-87
2024/02/02 13:30:17;;;;;;;11.63;7.27;;;7.40;1.00;;;;;;5059336;28;21037;-87
2024/02/02 13:32:45;;;;;;;11.02;6.88;;;7.40;1.00;;;;;;5059247;28;20429;-87
2024/02/02 13:35:22;;;;;;;15.00;7.13;;;7.40;1.00;;;;;;5060035;28;20231;-87
2024/02/02 13:37:51;;;;;;;19.93;6.40;;;7.40;1.00;;;;;;5059273;28;20203;-88
2024/02/02 13:40:18;;;;;;;10.10;5.33;;;7.40;1.00;;;;;;5058123;28;20421;-88
2024/02/02 13:42:47;;;;;;;11.43;6.57;;;7.40;1.00;;;;;;5058211;28;20480;-87